Overview Statistics Trail Chart Weather Telemetry Raw packets
 

This is the latest recevied weather packets stored in our database for station/object DL7KAW-10. If no packets are shown the sender has not sent any weather packets the latest 10 day(s).

<< 30 31 32 33 34 35 36 >>
Time Temp. Humidity Pressure Rain* Wind** Luminosity Snow
1788001268 22.22° C 64% 1011.7 hPa - - - -
1788000369 22.22° C 64% 1011.6 hPa - - - -
1787999468 22.22° C 64% 1011.8 hPa - - - -
1787998568 22.78° C 62% 1011.8 hPa - - - -
1787997668 22.78° C 62% 1011.9 hPa - - - -
1787996767 22.78° C 62% 1012 hPa - - - -
1787995867 22.78° C 62% 1012 hPa - - - -
1787994967 22.78° C 60% 1011.7 hPa - - - -
1787994068 22.78° C 60% 1011.7 hPa - - - -
1787993167 23.33° C 60% 1011.7 hPa - - - -
1787992268 26.11° C 52% 1011.6 hPa - - - -
1787991367 25° C 56% 1011.6 hPa - - - -
1787990467 22.22° C 62% 1011.6 hPa - - - -
1787989566 21.67° C 64% 1011.4 hPa - - - -
1787988666 21.67° C 65% 1011.4 hPa - - - -
1787987766 21.11° C 65% 1011.2 hPa - - - -
1787986866 21.11° C 65% 1011.4 hPa - - - -
1787985966 21.11° C 66% 1011.3 hPa - - - -
1787985066 21.11° C 66% 1011.2 hPa - - - -
1787984166 21.11° C 67% 1011.1 hPa - - - -
1787983266 21.11° C 68% 1011.1 hPa - - - -
1787982365 21.11° C 68% 1011 hPa - - - -
1787981465 21.11° C 69% 1010.9 hPa - - - -
1787980565 21.11° C 71% 1011.1 hPa - - - -
1787979665 21.11° C 71% 1010.9 hPa - - - -

* Rain since midnight (hover to see other rain measurements)
** Current wind speed in m/s (hover to see current wind gust speed)